KR-0405 weather

Busan Coast Guard Base Heliport
Busan (Yeoung-do), Busan Gwang'yeogsi, South Korea

Public forecast

Using degrees Celsius for public forecast. Weather courtesy of forecast.io.

METAR (pilot weather report)

Closest report is Gimhae International Airport, 9.1 nm (16.8 km) NW. Retrieved 2019/07/19 11:00 UTC (18 minutes ago):

RKPK 191100Z 12008KT 8000 -RA SCT005 BKN010 OVC020 25/22 Q1008

TAF (pilot weather forecast)

Closest forecast is Gimhae International Airport, 9.1 nm (16.8 km) NW. Retrieved 2019/07/19 06:00 UTC (5 hours ago):

TAF RKPK 190500Z 1906/2012 12010G20KT 4800 -RA BR BKN010 OVC020 TN23/1921Z TX26/2006Z BECMG 1915/1916 14015G25KT 3200 RA BR BKN005 OVC010 BECMG 1921/1922 15020G40KT 1600 BECMG 2006/2007 21015G25KT 4800 -RA BR BKN010 OVC020